sensor_id;sensor_type;location;lat;lon;timestamp;pressure;altitude;pressure_sealevel;temperature;humidity
59971;BME280;45825;45.434;9.116;2023-02-03T00:00:34;101184.03;;;9.23;54.42
59971;BME280;45825;45.434;9.116;2023-02-03T00:02:59;101178.84;;;9.22;54.45
59971;BME280;45825;45.434;9.116;2023-02-03T00:05:25;101181.69;;;9.16;55.60
59971;BME280;45825;45.434;9.116;2023-02-03T00:07:50;101177.19;;;9.19;54.81
59971;BME280;45825;45.434;9.116;2023-02-03T00:10:16;101181.84;;;9.11;54.67
59971;BME280;45825;45.434;9.116;2023-02-03T00:12:49;101183.56;;;9.12;54.37
59971;BME280;45825;45.434;9.116;2023-02-03T00:15:15;101179.25;;;9.09;54.71
59971;BME280;45825;45.434;9.116;2023-02-03T00:17:41;101176.56;;;9.13;53.73
59971;BME280;45825;45.434;9.116;2023-02-03T00:20:06;101179.25;;;9.09;53.19
59971;BME280;45825;45.434;9.116;2023-02-03T00:22:32;101182.44;;;8.94;53.51
59971;BME280;45825;45.434;9.116;2023-02-03T00:24:57;101192.44;;;8.83;53.69
59971;BME280;45825;45.434;9.116;2023-02-03T00:27:23;101187.47;;;8.73;54.02
59971;BME280;45825;45.434;9.116;2023-02-03T00:29:48;101185.09;;;8.67;54.63
59971;BME280;45825;45.434;9.116;2023-02-03T00:32:13;101182.53;;;8.64;54.48
59971;BME280;45825;45.434;9.116;2023-02-03T00:34:39;101179.38;;;8.54;54.90
59971;BME280;45825;45.434;9.116;2023-02-03T00:37:04;101178.16;;;8.36;56.02
59971;BME280;45825;45.434;9.116;2023-02-03T00:39:29;101176.38;;;8.36;56.02
59971;BME280;45825;45.434;9.116;2023-02-03T00:41:54;101168.50;;;8.36;56.46
59971;BME280;45825;45.434;9.116;2023-02-03T00:44:20;101175.09;;;8.21;55.99
59971;BME280;45825;45.434;9.116;2023-02-03T00:46:45;101178.72;;;8.17;56.34
59971;BME280;45825;45.434;9.116;2023-02-03T00:49:10;101174.69;;;8.05;57.49
59971;BME280;45825;45.434;9.116;2023-02-03T00:51:36;101176.66;;;7.99;57.21
59971;BME280;45825;45.434;9.116;2023-02-03T00:54:01;101179.28;;;7.99;57.44
59971;BME280;45825;45.434;9.116;2023-02-03T00:56:26;101181.97;;;7.97;57.21
59971;BME280;45825;45.434;9.116;2023-02-03T00:58:51;101180.22;;;7.96;57.66
59971;BME280;45825;45.434;9.116;2023-02-03T01:01:17;101175.81;;;7.98;58.07
59971;BME280;45825;45.434;9.116;2023-02-03T01:03:42;101180.19;;;7.97;58.31
59971;BME280;45825;45.434;9.116;2023-02-03T01:06:13;101176.53;;;8.03;57.89
59971;BME280;45825;45.434;9.116;2023-02-03T01:08:39;101170.38;;;8.04;58.40
59971;BME280;45825;45.434;9.116;2023-02-03T01:11:06;101168.41;;;8.11;57.86
59971;BME280;45825;45.434;9.116;2023-02-03T01:13:31;101162.25;;;8.12;57.61
59971;BME280;45825;45.434;9.116;2023-02-03T01:15:57;101169.31;;;8.10;57.63
59971;BME280;45825;45.434;9.116;2023-02-03T01:18:22;101166.84;;;8.05;57.68
59971;BME280;45825;45.434;9.116;2023-02-03T01:20:48;101175.72;;;8.01;57.47
59971;BME280;45825;45.434;9.116;2023-02-03T01:23:13;101180.00;;;8.04;57.49
59971;BME280;45825;45.434;9.116;2023-02-03T01:25:39;101178.19;;;8.06;57.50
59971;BME280;45825;45.434;9.116;2023-02-03T01:33:14;101190.41;;;8.07;55.82
59971;BME280;45825;45.434;9.116;2023-02-03T01:35:40;101198.56;;;7.96;55.91
59971;BME280;45825;45.434;9.116;2023-02-03T01:38:05;101188.53;;;7.80;55.88
59971;BME280;45825;45.434;9.116;2023-02-03T01:40:30;101189.97;;;7.61;56.71
59971;BME280;45825;45.434;9.116;2023-02-03T01:42:56;101197.69;;;7.65;56.68
59971;BME280;45825;45.434;9.116;2023-02-03T01:45:21;101190.03;;;7.59;57.78
59971;BME280;45825;45.434;9.116;2023-02-03T01:47:52;101189.72;;;7.70;57.11
59971;BME280;45825;45.434;9.116;2023-02-03T01:50:20;101193.69;;;7.83;56.38
59971;BME280;45825;45.434;9.116;2023-02-03T01:52:50;101190.34;;;7.78;56.50
59971;BME280;45825;45.434;9.116;2023-02-03T01:55:20;101189.00;;;7.65;57.04
59971;BME280;45825;45.434;9.116;2023-02-03T01:57:52;101188.81;;;7.71;56.93
59971;BME280;45825;45.434;9.116;2023-02-03T02:00:18;101194.19;;;7.66;57.53
59971;BME280;45825;45.434;9.116;2023-02-03T02:02:45;101204.13;;;6.49;61.40
59971;BME280;45825;45.434;9.116;2023-02-03T02:05:24;101198.13;;;6.83;60.84
59971;BME280;45825;45.434;9.116;2023-02-03T02:07:51;101203.19;;;6.53;62.67
59971;BME280;45825;45.434;9.116;2023-02-03T02:10:17;101191.94;;;6.86;61.42
59971;BME280;45825;45.434;9.116;2023-02-03T02:12:43;101186.69;;;6.86;60.94
59971;BME280;45825;45.434;9.116;2023-02-03T02:15:09;101182.22;;;6.91;61.17
59971;BME280;45825;45.434;9.116;2023-02-03T02:23:40;101191.59;;;7.00;60.88
59971;BME280;45825;45.434;9.116;2023-02-03T02:26:36;101191.00;;;6.89;60.62
59971;BME280;45825;45.434;9.116;2023-02-03T02:29:27;101193.41;;;6.62;61.10
59971;BME280;45825;45.434;9.116;2023-02-03T02:32:19;101190.81;;;6.62;61.18
59971;BME280;45825;45.434;9.116;2023-02-03T02:37:34;101192.53;;;6.23;62.97
59971;BME280;45825;45.434;9.116;2023-02-03T02:45:21;101185.41;;;6.30;62.72
59971;BME280;45825;45.434;9.116;2023-02-03T02:47:53;101175.66;;;6.37;61.70
59971;BME280;45825;45.434;9.116;2023-02-03T02:50:27;101177.59;;;6.28;62.24
59971;BME280;45825;45.434;9.116;2023-02-03T02:52:55;101170.59;;;6.31;62.06
59971;BME280;45825;45.434;9.116;2023-02-03T02:55:25;101157.81;;;6.18;62.07
59971;BME280;45825;45.434;9.116;2023-02-03T02:57:58;101159.69;;;6.11;62.58
59971;BME280;45825;45.434;9.116;2023-02-03T03:00:29;101165.78;;;6.12;62.09
59971;BME280;45825;45.434;9.116;2023-02-03T03:02:54;101168.75;;;5.93;62.93
59971;BME280;45825;45.434;9.116;2023-02-03T03:05:22;101173.09;;;5.94;62.71
59971;BME280;45825;45.434;9.116;2023-02-03T03:07:54;101169.66;;;5.92;62.82
59971;BME280;45825;45.434;9.116;2023-02-03T03:10:24;101173.81;;;6.04;62.99
59971;BME280;45825;45.434;9.116;2023-02-03T03:12:56;101171.13;;;6.06;62.66
59971;BME280;45825;45.434;9.116;2023-02-03T03:15:26;101179.84;;;6.06;62.39
59971;BME280;45825;45.434;9.116;2023-02-03T03:18:03;101186.78;;;6.09;62.95
59971;BME280;45825;45.434;9.116;2023-02-03T03:20:30;101181.25;;;6.21;62.23
59971;BME280;45825;45.434;9.116;2023-02-03T03:23:06;101167.00;;;6.35;61.57
59971;BME280;45825;45.434;9.116;2023-02-03T03:25:45;101184.41;;;6.36;61.43
59971;BME280;45825;45.434;9.116;2023-02-03T03:28:19;101181.84;;;6.34;61.62
59971;BME280;45825;45.434;9.116;2023-02-03T03:30:48;101188.94;;;6.29;61.48
59971;BME280;45825;45.434;9.116;2023-02-03T03:33:14;101193.34;;;6.27;61.49
59971;BME280;45825;45.434;9.116;2023-02-03T03:36:11;101191.16;;;6.07;62.37
59971;BME280;45825;45.434;9.116;2023-02-03T03:38:43;101194.44;;;6.17;62.63
59971;BME280;45825;45.434;9.116;2023-02-03T03:43:51;101198.16;;;6.05;63.10
59971;BME280;45825;45.434;9.116;2023-02-03T03:46:25;101202.56;;;6.01;63.34
59971;BME280;45825;45.434;9.116;2023-02-03T03:48:58;101217.28;;;6.07;63.39
59971;BME280;45825;45.434;9.116;2023-02-03T03:54:07;101228.38;;;6.18;63.15
59971;BME280;45825;45.434;9.116;2023-02-03T03:56:40;101224.81;;;6.21;62.66
59971;BME280;45825;45.434;9.116;2023-02-03T03:59:08;101223.09;;;6.21;62.55
59971;BME280;45825;45.434;9.116;2023-02-03T04:01:36;101220.56;;;6.17;61.99
59971;BME280;45825;45.434;9.116;2023-02-03T04:04:06;101211.94;;;6.13;62.21
59971;BME280;45825;45.434;9.116;2023-02-03T04:06:33;101209.66;;;5.94;62.60
59971;BME280;45825;45.434;9.116;2023-02-03T04:08:58;101226.38;;;5.87;62.77
59971;BME280;45825;45.434;9.116;2023-02-03T04:11:26;101228.16;;;5.85;63.05
59971;BME280;45825;45.434;9.116;2023-02-03T04:14:10;101236.53;;;6.01;62.66
59971;BME280;45825;45.434;9.116;2023-02-03T04:16:35;101240.69;;;6.11;62.60
59971;BME280;45825;45.434;9.116;2023-02-03T04:19:00;101238.94;;;6.13;63.01
59971;BME280;45825;45.434;9.116;2023-02-03T04:21:25;101243.19;;;6.18;61.88
59971;BME280;45825;45.434;9.116;2023-02-03T04:23:51;101250.41;;;6.06;63.12
59971;BME280;45825;45.434;9.116;2023-02-03T04:26:16;101246.97;;;6.04;63.78
59971;BME280;45825;45.434;9.116;2023-02-03T04:28:42;101247.47;;;5.29;65.66
59971;BME280;45825;45.434;9.116;2023-02-03T04:31:08;101254.75;;;5.60;65.37
59971;BME280;45825;45.434;9.116;2023-02-03T04:33:33;101250.41;;;5.59;65.04
59971;BME280;45825;45.434;9.116;2023-02-03T04:35:58;101242.88;;;5.43;65.56
59971;BME280;45825;45.434;9.116;2023-02-03T04:38:24;101234.31;;;5.37;67.36
59971;BME280;45825;45.434;9.116;2023-02-03T04:40:49;101229.94;;;5.37;65.88
59971;BME280;45825;45.434;9.116;2023-02-03T04:43:15;101230.50;;;5.53;65.92
59971;BME280;45825;45.434;9.116;2023-02-03T04:45:41;101234.66;;;5.65;65.54
59971;BME280;45825;45.434;9.116;2023-02-03T04:48:06;101233.50;;;5.79;65.17
59971;BME280;45825;45.434;9.116;2023-02-03T04:50:32;101234.31;;;5.82;65.02
59971;BME280;45825;45.434;9.116;2023-02-03T04:52:57;101233.53;;;5.77;63.74
59971;BME280;45825;45.434;9.116;2023-02-03T04:55:26;101231.09;;;5.68;64.52
59971;BME280;45825;45.434;9.116;2023-02-03T04:57:56;101221.38;;;5.76;64.44
59971;BME280;45825;45.434;9.116;2023-02-03T05:00:21;101203.41;;;5.61;64.66
59971;BME280;45825;45.434;9.116;2023-02-03T05:02:47;101204.16;;;5.66;64.52
59971;BME280;45825;45.434;9.116;2023-02-03T05:05:12;101209.28;;;5.72;64.77
59971;BME280;45825;45.434;9.116;2023-02-03T05:07:37;101207.56;;;5.71;65.00
59971;BME280;45825;45.434;9.116;2023-02-03T05:10:03;101207.59;;;5.68;64.44
59971;BME280;45825;45.434;9.116;2023-02-03T05:12:29;101215.66;;;5.57;65.47
59971;BME280;45825;45.434;9.116;2023-02-03T05:14:54;101221.63;;;5.62;65.49
59971;BME280;45825;45.434;9.116;2023-02-03T05:17:20;101222.44;;;5.66;65.71
59971;BME280;45825;45.434;9.116;2023-02-03T05:19:45;101209.09;;;5.80;64.47
59971;BME280;45825;45.434;9.116;2023-02-03T05:22:10;101209.97;;;5.80;63.76
59971;BME280;45825;45.434;9.116;2023-02-03T05:24:35;101212.69;;;5.74;63.28
59971;BME280;45825;45.434;9.116;2023-02-03T05:27:01;101205.94;;;5.65;63.85
59971;BME280;45825;45.434;9.116;2023-02-03T05:29:26;101216.47;;;5.59;64.46
59971;BME280;45825;45.434;9.116;2023-02-03T05:31:51;101220.56;;;5.27;66.06
59971;BME280;45825;45.434;9.116;2023-02-03T05:34:17;101219.28;;;5.01;66.88
59971;BME280;45825;45.434;9.116;2023-02-03T05:36:42;101238.13;;;4.62;68.62
59971;BME280;45825;45.434;9.116;2023-02-03T05:39:07;101237.25;;;4.63;69.57
59971;BME280;45825;45.434;9.116;2023-02-03T05:41:33;101241.69;;;4.56;68.86
59971;BME280;45825;45.434;9.116;2023-02-03T05:44:16;101251.84;;;4.12;70.73
59971;BME280;45825;45.434;9.116;2023-02-03T05:46:41;101256.78;;;4.32;71.15
59971;BME280;45825;45.434;9.116;2023-02-03T05:49:07;101267.66;;;4.63;68.74
59971;BME280;45825;45.434;9.116;2023-02-03T05:51:32;101263.03;;;4.82;67.79
59971;BME280;45825;45.434;9.116;2023-02-03T05:53:57;101263.97;;;4.78;67.75
59971;BME280;45825;45.434;9.116;2023-02-03T05:56:23;101267.34;;;4.84;68.27
59971;BME280;45825;45.434;9.116;2023-02-03T05:58:48;101272.63;;;4.81;67.71
59971;BME280;45825;45.434;9.116;2023-02-03T06:01:17;101280.88;;;5.08;66.38
59971;BME280;45825;45.434;9.116;2023-02-03T06:03:43;101292.47;;;4.26;67.45
59971;BME280;45825;45.434;9.116;2023-02-03T06:06:09;101302.56;;;4.55;67.57
59971;BME280;45825;45.434;9.116;2023-02-03T06:08:34;101303.16;;;4.73;67.12
59971;BME280;45825;45.434;9.116;2023-02-03T06:10:59;101309.31;;;4.66;67.11
59971;BME280;45825;45.434;9.116;2023-02-03T06:13:25;101303.81;;;4.87;65.54
59971;BME280;45825;45.434;9.116;2023-02-03T06:15:51;101290.88;;;4.81;65.94
59971;BME280;45825;45.434;9.116;2023-02-03T06:18:16;101294.13;;;4.33;68.18
59971;BME280;45825;45.434;9.116;2023-02-03T06:20:42;101285.59;;;4.22;68.01
59971;BME280;45825;45.434;9.116;2023-02-03T06:23:07;101279.59;;;4.15;69.26
59971;BME280;45825;45.434;9.116;2023-02-03T06:25:32;101278.34;;;4.45;68.42
59971;BME280;45825;45.434;9.116;2023-02-03T06:27:58;101284.31;;;4.55;67.25
59971;BME280;45825;45.434;9.116;2023-02-03T06:30:25;101278.84;;;4.71;66.23
59971;BME280;45825;45.434;9.116;2023-02-03T06:32:50;101271.16;;;4.63;66.61
59971;BME280;45825;45.434;9.116;2023-02-03T06:35:16;101263.97;;;4.76;65.78
59971;BME280;45825;45.434;9.116;2023-02-03T06:37:42;101263.22;;;4.71;65.73
59971;BME280;45825;45.434;9.116;2023-02-03T06:40:08;101264.03;;;4.74;65.59
59971;BME280;45825;45.434;9.116;2023-02-03T06:42:35;101273.63;;;4.72;66.00
59971;BME280;45825;45.434;9.116;2023-02-03T06:45:00;101272.59;;;4.83;64.54
59971;BME280;45825;45.434;9.116;2023-02-03T06:47:25;101276.06;;;4.82;63.93
59971;BME280;45825;45.434;9.116;2023-02-03T06:49:51;101267.59;;;4.66;64.39
59971;BME280;45825;45.434;9.116;2023-02-03T06:52:17;101272.81;;;4.69;64.82
59971;BME280;45825;45.434;9.116;2023-02-03T06:54:42;101280.50;;;4.75;64.07
59971;BME280;45825;45.434;9.116;2023-02-03T06:57:07;101294.38;;;4.80;64.27
59971;BME280;45825;45.434;9.116;2023-02-03T06:59:33;101299.75;;;4.68;64.64
59971;BME280;45825;45.434;9.116;2023-02-03T07:01:58;101305.75;;;4.73;65.54
59971;BME280;45825;45.434;9.116;2023-02-03T07:04:23;101313.38;;;4.87;64.24
59971;BME280;45825;45.434;9.116;2023-02-03T07:06:49;101306.63;;;4.73;64.19
59971;BME280;45825;45.434;9.116;2023-02-03T07:09:14;101313.78;;;4.59;65.15
59971;BME280;45825;45.434;9.116;2023-02-03T07:11:40;101311.25;;;4.53;65.15
59971;BME280;45825;45.434;9.116;2023-02-03T07:14:05;101312.31;;;4.39;64.81
59971;BME280;45825;45.434;9.116;2023-02-03T07:16:31;101318.47;;;4.33;65.00
59971;BME280;45825;45.434;9.116;2023-02-03T07:18:58;101334.03;;;4.38;65.42
59971;BME280;45825;45.434;9.116;2023-02-03T07:21:24;101355.69;;;4.42;65.89
59971;BME280;45825;45.434;9.116;2023-02-03T07:23:49;101357.25;;;4.57;65.01
59971;BME280;45825;45.434;9.116;2023-02-03T07:26:15;101346.66;;;4.71;63.22
59971;BME280;45825;45.434;9.116;2023-02-03T07:28:41;101350.03;;;4.79;63.68
59971;BME280;45825;45.434;9.116;2023-02-03T07:31:06;101350.03;;;4.79;63.58
59971;BME280;45825;45.434;9.116;2023-02-03T07:33:37;101362.97;;;4.85;63.76
59971;BME280;45825;45.434;9.116;2023-02-03T07:36:04;101364.53;;;4.99;63.39
59971;BME280;45825;45.434;9.116;2023-02-03T07:38:29;101353.03;;;5.11;63.15
59971;BME280;45825;45.434;9.116;2023-02-03T07:40:55;101349.44;;;5.18;62.02
59971;BME280;45825;45.434;9.116;2023-02-03T07:43:21;101342.44;;;5.22;61.98
59971;BME280;45825;45.434;9.116;2023-02-03T07:45:46;101333.06;;;5.08;62.32
59971;BME280;45825;45.434;9.116;2023-02-03T07:48:12;101345.47;;;4.94;62.95
59971;BME280;45825;45.434;9.116;2023-02-03T07:50:38;101341.00;;;5.02;62.56
59971;BME280;45825;45.434;9.116;2023-02-03T07:53:03;101349.53;;;5.12;62.45
59971;BME280;45825;45.434;9.116;2023-02-03T07:55:29;101354.72;;;5.15;62.72
59971;BME280;45825;45.434;9.116;2023-02-03T07:57:56;101363.22;;;5.28;62.28
59971;BME280;45825;45.434;9.116;2023-02-03T08:00:22;101373.34;;;5.47;61.81
59971;BME280;45825;45.434;9.116;2023-02-03T08:02:48;101387.19;;;5.52;61.63
59971;BME280;45825;45.434;9.116;2023-02-03T08:05:14;101395.81;;;5.57;61.51
59971;BME280;45825;45.434;9.116;2023-02-03T08:07:40;101383.53;;;5.62;60.54
59971;BME280;45825;45.434;9.116;2023-02-03T08:10:06;101389.50;;;5.70;60.02
59971;BME280;45825;45.434;9.116;2023-02-03T08:12:31;101385.69;;;5.88;59.86
59971;BME280;45825;45.434;9.116;2023-02-03T08:14:57;101394.25;;;5.97;59.56
59971;BME280;45825;45.434;9.116;2023-02-03T08:17:22;101386.41;;;5.98;59.56
59971;BME280;45825;45.434;9.116;2023-02-03T08:19:47;101387.19;;;6.04;60.06
59971;BME280;45825;45.434;9.116;2023-02-03T08:22:13;101393.13;;;6.13;59.55
59971;BME280;45825;45.434;9.116;2023-02-03T08:24:44;101381.72;;;6.19;59.08
59971;BME280;45825;45.434;9.116;2023-02-03T08:27:11;101371.19;;;6.21;58.80
59971;BME280;45825;45.434;9.116;2023-02-03T08:29:37;101360.47;;;6.35;58.69
59971;BME280;45825;45.434;9.116;2023-02-03T08:32:02;101357.69;;;6.42;58.17
59971;BME280;45825;45.434;9.116;2023-02-03T08:34:28;101353.44;;;6.37;58.04
59971;BME280;45825;45.434;9.116;2023-02-03T08:36:53;101358.34;;;6.54;58.05
59971;BME280;45825;45.434;9.116;2023-02-03T08:39:19;101359.91;;;6.63;56.73
59971;BME280;45825;45.434;9.116;2023-02-03T08:41:44;101367.66;;;6.67;56.40
59971;BME280;45825;45.434;9.116;2023-02-03T08:44:09;101371.13;;;6.68;57.17
59971;BME280;45825;45.434;9.116;2023-02-03T08:46:35;101366.91;;;6.61;57.27
59971;BME280;45825;45.434;9.116;2023-02-03T08:49:00;101375.06;;;6.47;56.65
59971;BME280;45825;45.434;9.116;2023-02-03T08:51:27;101367.50;;;6.74;56.47
59971;BME280;45825;45.434;9.116;2023-02-03T08:53:52;101370.94;;;6.77;57.41
59971;BME280;45825;45.434;9.116;2023-02-03T08:56:18;101373.38;;;6.85;57.35
59971;BME280;45825;45.434;9.116;2023-02-03T08:58:43;101373.94;;;6.99;57.52
59971;BME280;45825;45.434;9.116;2023-02-03T09:01:10;101358.19;;;7.01;57.06
59971;BME280;45825;45.434;9.116;2023-02-03T09:03:37;101359.59;;;7.16;57.08
59971;BME280;45825;45.434;9.116;2023-02-03T09:06:03;101350.59;;;7.26;56.23
59971;BME280;45825;45.434;9.116;2023-02-03T09:08:29;101354.47;;;7.48;55.05
59971;BME280;45825;45.434;9.116;2023-02-03T09:10:55;101368.09;;;7.61;55.38
59971;BME280;45825;45.434;9.116;2023-02-03T09:13:20;101378.47;;;7.65;54.68
59971;BME280;45825;45.434;9.116;2023-02-03T09:15:45;101383.34;;;7.81;55.53
59971;BME280;45825;45.434;9.116;2023-02-03T09:18:11;101377.91;;;7.87;53.83
59971;BME280;45825;45.434;9.116;2023-02-03T09:20:36;101381.19;;;7.95;53.57
59971;BME280;45825;45.434;9.116;2023-02-03T09:23:01;101373.00;;;8.08;54.34
59971;BME280;45825;45.434;9.116;2023-02-03T09:25:26;101366.69;;;8.15;53.69
59971;BME280;45825;45.434;9.116;2023-02-03T09:27:52;101366.44;;;8.24;53.48
59971;BME280;45825;45.434;9.116;2023-02-03T09:30:17;101376.03;;;8.25;53.71
59971;BME280;45825;45.434;9.116;2023-02-03T09:32:44;101388.81;;;8.36;53.15
59971;BME280;45825;45.434;9.116;2023-02-03T09:35:13;101383.41;;;8.43;52.77
59971;BME280;45825;45.434;9.116;2023-02-03T09:37:38;101397.94;;;8.55;52.68
59971;BME280;45825;45.434;9.116;2023-02-03T09:40:04;101393.44;;;8.60;52.13
59971;BME280;45825;45.434;9.116;2023-02-03T09:43:09;101396.88;;;8.62;51.66
59971;BME280;45825;45.434;9.116;2023-02-03T09:45:36;101408.00;;;8.70;51.99
59971;BME280;45825;45.434;9.116;2023-02-03T09:48:10;101401.75;;;8.74;52.18
59971;BME280;45825;45.434;9.116;2023-02-03T09:50:40;101402.63;;;8.75;47.98
59971;BME280;45825;45.434;9.116;2023-02-03T09:53:26;101404.69;;;8.93;46.94
59971;BME280;45825;45.434;9.116;2023-02-03T09:55:53;101382.81;;;8.94;45.31
59971;BME280;45825;45.434;9.116;2023-02-03T09:58:19;101384.31;;;9.02;45.27
59971;BME280;45825;45.434;9.116;2023-02-03T10:00:53;101391.06;;;9.11;43.34
59971;BME280;45825;45.434;9.116;2023-02-03T10:06:19;101397.81;;;9.18;50.65
59971;BME280;45825;45.434;9.116;2023-02-03T10:19:48;101390.41;;;9.85;50.36
59971;BME280;45825;45.434;9.116;2023-02-03T10:22:18;101387.28;;;9.99;48.86
59971;BME280;45825;45.434;9.116;2023-02-03T10:24:56;101390.00;;;10.21;47.37
59971;BME280;45825;45.434;9.116;2023-02-03T10:27:23;101382.28;;;10.40;45.49
59971;BME280;45825;45.434;9.116;2023-02-03T10:30:05;101370.94;;;10.64;45.19
59971;BME280;45825;45.434;9.116;2023-02-03T10:32:34;101365.59;;;10.89;44.31
59971;BME280;45825;45.434;9.116;2023-02-03T10:35:01;101364.09;;;11.06;43.47
59971;BME280;45825;45.434;9.116;2023-02-03T10:37:30;101369.88;;;11.36;42.81
59971;BME280;45825;45.434;9.116;2023-02-03T10:39:59;101362.19;;;11.73;42.55
59971;BME280;45825;45.434;9.116;2023-02-03T10:42:27;101370.03;;;11.74;42.10
59971;BME280;45825;45.434;9.116;2023-02-03T10:45:13;101354.25;;;12.54;41.54
59971;BME280;45825;45.434;9.116;2023-02-03T10:47:41;101358.06;;;13.05;40.50
59971;BME280;45825;45.434;9.116;2023-02-03T10:50:29;101337.16;;;14.06;39.25
59971;BME280;45825;45.434;9.116;2023-02-03T10:53:31;101341.69;;;14.86;37.09
59971;BME280;45825;45.434;9.116;2023-02-03T10:56:15;101333.41;;;16.69;34.91
59971;BME280;45825;45.434;9.116;2023-02-03T10:58:55;101323.91;;;17.99;32.56
59971;BME280;45825;45.434;9.116;2023-02-03T11:01:28;101319.94;;;19.17;30.53
59971;BME280;45825;45.434;9.116;2023-02-03T11:04:03;101322.56;;;20.00;29.73
59971;BME280;45825;45.434;9.116;2023-02-03T11:06:31;101308.94;;;20.93;28.52
59971;BME280;45825;45.434;9.116;2023-02-03T11:08:57;101303.78;;;21.86;27.68
59971;BME280;45825;45.434;9.116;2023-02-03T11:11:25;101315.41;;;22.47;26.82
59971;BME280;45825;45.434;9.116;2023-02-03T11:14:14;101310.88;;;22.48;25.66
59971;BME280;45825;45.434;9.116;2023-02-03T11:16:40;101302.75;;;23.28;25.29
59971;BME280;45825;45.434;9.116;2023-02-03T11:19:15;101292.19;;;24.40;24.60
59971;BME280;45825;45.434;9.116;2023-02-03T11:21:50;101289.72;;;25.46;23.38
59971;BME280;45825;45.434;9.116;2023-02-03T11:24:21;101286.44;;;25.87;22.99
59971;BME280;45825;45.434;9.116;2023-02-03T11:26:56;101273.88;;;25.43;23.18
59971;BME280;45825;45.434;9.116;2023-02-03T11:29:27;101265.09;;;26.78;21.79
59971;BME280;45825;45.434;9.116;2023-02-03T11:31:53;101272.34;;;27.44;21.35
59971;BME280;45825;45.434;9.116;2023-02-03T11:34:24;101265.22;;;28.00;21.22
59971;BME280;45825;45.434;9.116;2023-02-03T11:36:51;101253.28;;;27.38;21.61
59971;BME280;45825;45.434;9.116;2023-02-03T11:39:43;101249.59;;;27.87;21.18
59971;BME280;45825;45.434;9.116;2023-02-03T11:42:21;101236.59;;;28.14;20.95
59971;BME280;45825;45.434;9.116;2023-02-03T11:44:47;101232.56;;;28.18;20.21
59971;BME280;45825;45.434;9.116;2023-02-03T11:47:13;101217.09;;;28.50;20.63
59971;BME280;45825;45.434;9.116;2023-02-03T11:49:59;101214.53;;;28.57;20.11
59971;BME280;45825;45.434;9.116;2023-02-03T11:52:49;101195.31;;;29.35;19.80
59971;BME280;45825;45.434;9.116;2023-02-03T11:58:39;101198.84;;;28.91;20.37
59971;BME280;45825;45.434;9.116;2023-02-03T12:12:41;101165.16;;;28.70;22.10
59971;BME280;45825;45.434;9.116;2023-02-03T12:15:26;101162.50;;;28.85;22.48
59971;BME280;45825;45.434;9.116;2023-02-03T12:26:22;101137.78;;;29.85;20.99
59971;BME280;45825;45.434;9.116;2023-02-03T12:29:13;101136.81;;;30.36;19.20
59971;BME280;45825;45.434;9.116;2023-02-03T12:32:04;101127.09;;;30.49;19.62
59971;BME280;45825;45.434;9.116;2023-02-03T12:34:35;101114.19;;;31.21;19.68
59971;BME280;45825;45.434;9.116;2023-02-03T12:37:08;101105.06;;;32.12;17.42
59971;BME280;45825;45.434;9.116;2023-02-03T12:39:43;101107.88;;;31.56;18.97
59971;BME280;45825;45.434;9.116;2023-02-03T12:42:23;101106.97;;;32.58;17.59
59971;BME280;45825;45.434;9.116;2023-02-03T12:45:00;101104.72;;;31.46;19.03
59971;BME280;45825;45.434;9.116;2023-02-03T12:50:13;101091.06;;;32.15;18.39
59971;BME280;45825;45.434;9.116;2023-02-03T12:52:48;101077.25;;;32.30;17.87
59971;BME280;45825;45.434;9.116;2023-02-03T12:58:09;101080.09;;;30.42;20.05
59971;BME280;45825;45.434;9.116;2023-02-03T13:03:15;101061.97;;;29.77;20.78
59971;BME280;45825;45.434;9.116;2023-02-03T13:06:10;101069.91;;;30.50;20.39
59971;BME280;45825;45.434;9.116;2023-02-03T13:08:42;101053.81;;;30.20;21.25
59971;BME280;45825;45.434;9.116;2023-02-03T13:11:22;101054.34;;;26.24;24.47
59971;BME280;45825;45.434;9.116;2023-02-03T13:14:16;101049.50;;;29.24;22.56
59971;BME280;45825;45.434;9.116;2023-02-03T13:16:49;101045.25;;;30.74;20.18
59971;BME280;45825;45.434;9.116;2023-02-03T13:19:25;101031.63;;;31.16;20.37
59971;BME280;45825;45.434;9.116;2023-02-03T13:21:52;101034.00;;;30.20;21.03
59971;BME280;45825;45.434;9.116;2023-02-03T13:24:17;101040.31;;;30.27;21.13
59971;BME280;45825;45.434;9.116;2023-02-03T13:27:07;101031.66;;;29.14;21.90
59971;BME280;45825;45.434;9.116;2023-02-03T13:40:31;101026.50;;;30.92;20.84
59971;BME280;45825;45.434;9.116;2023-02-03T13:43:04;101035.22;;;30.46;21.04
59971;BME280;45825;45.434;9.116;2023-02-03T13:45:40;101020.03;;;31.42;20.68
59971;BME280;45825;45.434;9.116;2023-02-03T13:48:22;101014.63;;;32.16;19.65
59971;BME280;45825;45.434;9.116;2023-02-03T13:50:50;101014.16;;;31.52;20.36
59971;BME280;45825;45.434;9.116;2023-02-03T13:53:26;101004.88;;;31.13;20.58
59971;BME280;45825;45.434;9.116;2023-02-03T13:55:55;101015.13;;;30.05;22.15
59971;BME280;45825;45.434;9.116;2023-02-03T13:58:36;101003.88;;;30.43;21.50
59971;BME280;45825;45.434;9.116;2023-02-03T14:05:56;100982.34;;;28.52;23.61
59971;BME280;45825;45.434;9.116;2023-02-03T14:16:35;100965.72;;;29.22;23.08
59971;BME280;45825;45.434;9.116;2023-02-03T14:19:00;100963.94;;;29.51;22.82
59971;BME280;45825;45.434;9.116;2023-02-03T14:21:28;100975.00;;;29.13;22.80
59971;BME280;45825;45.434;9.116;2023-02-03T14:24:07;100978.06;;;29.47;22.40
59971;BME280;45825;45.434;9.116;2023-02-03T14:26:37;100968.72;;;29.49;22.40
59971;BME280;45825;45.434;9.116;2023-02-03T14:29:04;100960.59;;;27.92;23.78
59971;BME280;45825;45.434;9.116;2023-02-03T14:31:30;100981.00;;;24.51;27.70
59971;BME280;45825;45.434;9.116;2023-02-03T14:34:05;100982.66;;;22.60;30.69
59971;BME280;45825;45.434;9.116;2023-02-03T14:36:43;100996.25;;;21.50;32.82
59971;BME280;45825;45.434;9.116;2023-02-03T14:44:58;100977.94;;;18.68;38.84
59971;BME280;45825;45.434;9.116;2023-02-03T14:50:30;100980.75;;;18.19;40.56